Startpagina
METAR-TAF:

METAR-TAF

Vliegvelden :

Santa Ana del Yacuma, Bolivia

breedte: 13-46S, lengte: 065-26W, hoogte: 144 m

Actueel weer

Dit bericht is 38 minuten geleden gemaakt, om 14:00 UTC
Wind 7 kt uit het noordwesten
Temperatuur 30°C
Vochtigheid 75%
Druk 1011 hPa
Zicht 10 km of meer
Weinig wolken op 1700 ft
Gebroken wolken op 8000 ft
Gebroken wolken op 20000 ft

METAR: SLSA 191400Z 32007KT 9999 FEW017 BKN080 BKN200 30/25 Q1011

Tijdstip: 10:38 (14:38 UTC)


TAF: ontbreekt

Waarnemingen en weersverwachtingen van meer dan 4000 vliegvelden (METAR en TAF).

De beschikbare stations zijn de gele en rode punten op de kaart.

Ga met uw muis naar het station om de naam te zien.

Klik dan om waarnemingen en weersverwachtingen te zien.

kaart wijzigen: klik op de groene knoppen met een zwart kruis om in te zoomen, op de groene knop met een streepje om uit te zoomen of op de groene pijlen voor aangrenzende kaarten.


METAR-TAF: